createdAt,value
2022-07-25T00:00:25.491Z,22.83
2022-07-25T00:02:52.394Z,22.81
2022-07-25T00:05:19.593Z,22.78
2022-07-25T00:07:46.528Z,22.77
2022-07-25T00:10:13.497Z,22.76
2022-07-25T00:12:40.725Z,22.73
2022-07-25T00:15:08.045Z,22.78
2022-07-25T00:17:35.153Z,22.76
2022-07-25T00:20:02.966Z,22.75
2022-07-25T00:22:29.926Z,22.74
2022-07-25T00:24:56.828Z,22.80
2022-07-25T00:27:23.710Z,22.83
2022-07-25T00:29:50.717Z,22.76
2022-07-25T00:32:17.603Z,22.77
2022-07-25T00:34:44.568Z,22.74
2022-07-25T00:37:11.513Z,22.74
2022-07-25T00:39:38.444Z,22.76
2022-07-25T00:42:05.548Z,22.80
2022-07-25T00:44:33.978Z,22.77
2022-07-25T00:47:00.979Z,22.77
2022-07-25T00:49:28.895Z,22.74
2022-07-25T00:51:55.987Z,22.74
2022-07-25T00:54:23.468Z,22.76
2022-07-25T00:56:50.642Z,22.73
2022-07-25T00:59:18.022Z,22.76
2022-07-25T01:01:48.369Z,22.76
2022-07-25T01:04:16.242Z,22.73
2022-07-25T01:06:43.467Z,22.72
2022-07-25T01:09:10.853Z,22.70
2022-07-25T01:11:37.878Z,22.69
2022-07-25T01:14:05.374Z,22.63
2022-07-25T01:16:32.599Z,22.60
2022-07-25T01:18:59.932Z,22.64
2022-07-25T01:21:27.380Z,22.57
2022-07-25T01:23:54.343Z,22.58
2022-07-25T01:26:21.240Z,22.61
2022-07-25T01:28:48.079Z,22.58
2022-07-25T01:31:15.127Z,22.45
2022-07-25T01:33:42.031Z,22.43
2022-07-25T01:36:09.365Z,22.40
2022-07-25T01:38:36.274Z,22.46
2022-07-25T01:41:03.260Z,22.38
2022-07-25T01:43:30.222Z,22.35
2022-07-25T01:45:57.298Z,22.34
2022-07-25T01:48:24.705Z,22.31
2022-07-25T01:50:51.733Z,22.30
2022-07-25T01:53:19.183Z,22.27
2022-07-25T01:55:47.254Z,22.28
2022-07-25T01:58:14.259Z,22.21
2022-07-25T02:00:41.589Z,22.25
2022-07-25T02:03:26.880Z,22.20
2022-07-25T02:05:53.774Z,22.18
2022-07-25T02:08:20.723Z,22.09
2022-07-25T02:10:47.767Z,22.05
2022-07-25T02:13:14.683Z,22.06
2022-07-25T02:15:41.736Z,22.00
2022-07-25T02:18:08.792Z,21.93
2022-07-25T02:20:35.650Z,21.98
2022-07-25T02:23:03.670Z,22.02
2022-07-25T02:25:30.842Z,22.03
2022-07-25T02:27:57.788Z,22.00
2022-07-25T02:30:24.808Z,22.02
2022-07-25T02:32:51.951Z,22.03
2022-07-25T02:35:19.137Z,21.98
2022-07-25T02:37:46.533Z,21.96
2022-07-25T02:40:13.563Z,21.94
2022-07-25T02:42:40.608Z,21.89
2022-07-25T02:45:08.098Z,21.91
2022-07-25T02:47:34.958Z,21.99
2022-07-25T02:50:01.882Z,22.01
2022-07-25T02:52:28.738Z,21.97
2022-07-25T02:54:55.612Z,21.97
2022-07-25T02:57:22.498Z,22.01
2022-07-25T02:59:49.414Z,21.99
2022-07-25T03:02:16.430Z,21.98
2022-07-25T03:04:43.287Z,22.04
2022-07-25T03:07:10.269Z,22.04
2022-07-25T03:09:37.287Z,22.04
2022-07-25T03:12:04.466Z,22.04
2022-07-25T03:14:31.348Z,22.08
2022-07-25T03:16:58.388Z,22.11
2022-07-25T03:19:25.349Z,22.13
2022-07-25T03:21:52.252Z,22.11
2022-07-25T03:24:20.007Z,22.11
2022-07-25T03:26:46.888Z,22.06
2022-07-25T03:29:13.860Z,22.05
2022-07-25T03:31:40.831Z,21.98
2022-07-25T03:34:08.076Z,22.06
2022-07-25T03:36:35.558Z,22.05
2022-07-25T03:39:05.542Z,22.00
2022-07-25T03:41:32.685Z,21.99
2022-07-25T03:43:59.615Z,22.00
2022-07-25T03:46:26.680Z,21.97
2022-07-25T03:48:53.789Z,21.96
2022-07-25T03:51:20.644Z,21.97
2022-07-25T03:54:02.503Z,21.92
2022-07-25T03:56:33.294Z,21.91
2022-07-25T03:59:00.178Z,21.92
2022-07-25T04:01:27.097Z,21.88
2022-07-25T04:03:54.169Z,21.80
2022-07-25T04:06:21.165Z,21.82
2022-07-25T04:08:48.057Z,21.76
2022-07-25T04:11:14.947Z,21.78
2022-07-25T04:13:42.073Z,21.77
2022-07-25T04:16:14.596Z,21.76
2022-07-25T04:18:45.347Z,21.72
2022-07-25T04:21:12.331Z,21.70
2022-07-25T04:23:39.278Z,21.69
2022-07-25T04:26:06.364Z,21.68
2022-07-25T04:28:33.331Z,21.69
2022-07-25T04:31:00.265Z,21.72
2022-07-25T04:33:27.755Z,21.73
2022-07-25T04:35:54.681Z,21.68
2022-07-25T04:38:21.814Z,21.59
2022-07-25T04:40:48.930Z,21.49
2022-07-25T04:43:16.000Z,21.52
2022-07-25T04:45:42.953Z,21.57
2022-07-25T04:48:09.863Z,21.51
2022-07-25T04:50:36.790Z,21.50
2022-07-25T04:53:04.134Z,21.49
2022-07-25T04:55:32.538Z,21.41
2022-07-25T04:58:00.427Z,21.40
2022-07-25T05:00:27.466Z,21.46
2022-07-25T05:02:54.426Z,21.46
2022-07-25T05:05:22.266Z,21.41
2022-07-25T05:07:50.403Z,21.39
2022-07-25T05:10:17.861Z,21.43
2022-07-25T05:12:44.759Z,21.40
2022-07-25T05:15:12.600Z,21.42
2022-07-25T05:17:39.542Z,21.33
2022-07-25T05:20:07.151Z,21.37
2022-07-25T05:22:34.106Z,21.37
2022-07-25T05:25:02.581Z,21.35
2022-07-25T05:27:29.510Z,21.37
2022-07-25T05:29:56.465Z,21.36
2022-07-25T05:32:24.066Z,21.32
2022-07-25T05:34:51.454Z,21.35
2022-07-25T05:37:18.430Z,21.29
2022-07-25T05:39:45.700Z,21.25
2022-07-25T05:42:12.557Z,21.32
2022-07-25T05:44:39.833Z,21.29
2022-07-25T05:47:11.230Z,21.25
2022-07-25T05:49:38.399Z,21.30
2022-07-25T05:52:09.503Z,21.34
2022-07-25T05:54:39.594Z,21.36
2022-07-25T05:57:06.523Z,21.39
2022-07-25T05:59:33.406Z,21.41
2022-07-25T06:02:02.391Z,21.43
2022-07-25T06:04:29.424Z,21.45
2022-07-25T06:06:56.414Z,21.47
2022-07-25T06:09:23.970Z,21.49
2022-07-25T06:12:00.538Z,21.51
2022-07-25T06:14:28.825Z,21.52
2022-07-25T06:16:56.043Z,21.46
2022-07-25T06:19:23.360Z,21.50
2022-07-25T06:21:50.355Z,21.58
2022-07-25T06:24:17.406Z,21.57
2022-07-25T06:26:44.306Z,21.57
2022-07-25T06:29:11.290Z,21.61
2022-07-25T06:31:38.312Z,21.60
2022-07-25T06:34:05.903Z,21.61
2022-07-25T06:36:33.254Z,21.64
2022-07-25T06:39:00.559Z,21.64
2022-07-25T06:41:27.498Z,21.67
2022-07-25T06:43:54.410Z,21.64
2022-07-25T06:46:21.386Z,21.63
2022-07-25T06:48:48.419Z,21.66
2022-07-25T06:51:15.704Z,21.67
2022-07-25T06:53:42.602Z,21.69
2022-07-25T06:56:11.322Z,21.71
2022-07-25T06:58:41.299Z,21.72
2022-07-25T07:01:08.225Z,21.73
2022-07-25T07:03:38.505Z,21.69
2022-07-25T07:06:06.805Z,21.66
2022-07-25T07:08:34.297Z,21.66
2022-07-25T07:11:01.674Z,21.69
2022-07-25T07:13:28.586Z,21.65
2022-07-25T07:15:56.106Z,21.68
2022-07-25T07:18:23.471Z,21.67
2022-07-25T07:20:51.948Z,21.71
2022-07-25T07:23:19.141Z,21.73
2022-07-25T07:25:47.392Z,21.73
2022-07-25T07:28:15.865Z,21.73
2022-07-25T07:33:30.511Z,21.77
2022-07-25T07:35:57.506Z,21.81
2022-07-25T07:38:25.100Z,21.83
2022-07-25T07:40:52.671Z,21.83
2022-07-25T07:43:19.900Z,21.79
2022-07-25T07:45:47.012Z,21.77
2022-07-25T07:48:13.949Z,21.74
2022-07-25T07:50:41.272Z,21.71
2022-07-25T07:53:08.223Z,21.69
2022-07-25T07:55:49.042Z,21.63
2022-07-25T07:58:18.284Z,21.69
2022-07-25T08:00:50.003Z,21.67
2022-07-25T08:03:21.660Z,21.74
2022-07-25T08:05:49.473Z,21.74
2022-07-25T08:08:16.546Z,21.77
2022-07-25T08:10:45.862Z,21.78
2022-07-25T08:13:18.103Z,21.82
2022-07-25T08:15:47.218Z,21.84
2022-07-25T08:18:17.943Z,21.85
2022-07-25T08:20:48.806Z,21.93
2022-07-25T08:23:15.978Z,22.01
2022-07-25T08:25:43.161Z,22.03
2022-07-25T08:28:10.230Z,22.07
2022-07-25T08:30:38.211Z,22.09
2022-07-25T08:33:07.459Z,22.13
2022-07-25T08:35:34.879Z,22.18
2022-07-25T08:38:02.841Z,22.23
2022-07-25T08:40:31.329Z,22.27
2022-07-25T08:42:59.643Z,22.32
2022-07-25T08:45:29.030Z,22.35
2022-07-25T08:47:57.570Z,22.41
2022-07-25T08:50:30.199Z,22.46
2022-07-25T08:53:30.308Z,22.47
2022-07-25T08:55:48.289Z,22.52
2022-07-25T08:58:17.079Z,22.55
2022-07-25T09:00:45.831Z,22.51
2022-07-25T09:03:14.103Z,22.53
2022-07-25T09:05:42.545Z,22.51
2022-07-25T09:08:16.267Z,22.47
2022-07-25T09:10:52.659Z,22.46
2022-07-25T09:13:24.037Z,22.49
2022-07-25T09:15:54.404Z,22.51
2022-07-25T09:18:28.150Z,22.57
2022-07-25T09:21:00.091Z,22.59
2022-07-25T09:23:36.292Z,22.66
2022-07-25T09:26:10.389Z,22.63
2022-07-25T09:29:04.726Z,22.66
2022-07-25T09:31:35.794Z,22.69
2022-07-25T09:34:08.795Z,22.71
2022-07-25T09:36:40.210Z,22.74
2022-07-25T09:39:07.235Z,22.79
2022-07-25T09:41:38.697Z,22.78
2022-07-25T09:44:17.571Z,22.82
2022-07-25T09:46:44.813Z,22.85
2022-07-25T09:49:14.784Z,22.85
2022-07-25T09:51:45.025Z,22.88
2022-07-25T09:54:12.033Z,22.93
2022-07-25T09:56:38.956Z,22.98
2022-07-25T09:59:06.617Z,22.99
2022-07-25T10:01:39.895Z,23.05
2022-07-25T10:04:42.174Z,23.12
2022-07-25T10:07:10.787Z,23.16
2022-07-25T10:09:49.742Z,23.24
2022-07-25T10:12:21.153Z,23.24
2022-07-25T10:15:09.211Z,23.27
2022-07-25T10:17:37.513Z,23.29
2022-07-25T10:20:07.410Z,23.32
2022-07-25T10:22:56.214Z,23.31
2022-07-25T10:25:25.165Z,23.34
2022-07-25T10:28:01.429Z,23.29
2022-07-25T10:30:36.734Z,23.30
2022-07-25T10:33:11.346Z,23.27
2022-07-25T10:35:39.087Z,23.25
2022-07-25T10:38:07.186Z,23.25
2022-07-25T10:40:39.247Z,23.32
2022-07-25T10:43:06.207Z,23.36
2022-07-25T10:45:44.335Z,23.40
2022-07-25T10:48:13.678Z,23.42
2022-07-25T10:50:55.749Z,23.40
2022-07-25T10:53:49.641Z,23.38
2022-07-25T10:56:17.803Z,23.38
2022-07-25T10:58:48.699Z,23.36
2022-07-25T11:01:24.276Z,23.37
2022-07-25T11:03:52.493Z,23.36
2022-07-25T11:06:34.681Z,23.35
2022-07-25T11:09:03.487Z,23.35
2022-07-25T11:11:39.025Z,23.35
2022-07-25T11:14:13.894Z,23.33
2022-07-25T11:16:41.223Z,23.38
2022-07-25T11:19:23.198Z,23.42
2022-07-25T11:21:53.542Z,23.43
2022-07-25T11:24:20.569Z,23.41
2022-07-25T11:26:49.656Z,23.41
2022-07-25T11:29:24.777Z,23.41
2022-07-25T11:32:02.805Z,23.42
2022-07-25T11:34:38.175Z,23.39
2022-07-25T11:37:09.153Z,23.37
2022-07-25T11:39:38.352Z,23.29
2022-07-25T11:42:05.442Z,23.28
2022-07-25T11:44:33.988Z,23.23
2022-07-25T11:47:00.924Z,23.24
2022-07-25T11:49:27.866Z,23.12
2022-07-25T11:51:54.781Z,23.12
2022-07-25T11:54:21.650Z,23.11
2022-07-25T11:56:48.631Z,23.06
2022-07-25T11:59:15.639Z,23.09
2022-07-25T12:01:45.173Z,23.13
2022-07-25T12:04:17.912Z,23.18
2022-07-25T12:06:47.387Z,23.22
2022-07-25T12:09:19.708Z,23.24
2022-07-25T12:11:47.926Z,23.25
2022-07-25T12:14:15.501Z,23.22
2022-07-25T12:16:42.591Z,23.20
2022-07-25T12:19:10.951Z,23.19
2022-07-25T12:21:37.968Z,23.21
2022-07-25T12:24:05.457Z,23.18
2022-07-25T12:26:32.353Z,23.12
2022-07-25T12:28:59.222Z,23.08
2022-07-25T12:31:29.083Z,23.05
2022-07-25T12:33:56.341Z,23.00
2022-07-25T12:36:23.340Z,23.00
2022-07-25T12:38:50.457Z,22.99
2022-07-25T12:41:22.830Z,22.99
2022-07-25T12:43:50.032Z,22.98
2022-07-25T12:46:17.079Z,22.99
2022-07-25T12:48:44.432Z,23.01
2022-07-25T12:51:11.505Z,22.99
2022-07-25T13:01:45.032Z,23.12
2022-07-25T13:04:11.992Z,23.25
2022-07-25T13:06:39.174Z,23.37
2022-07-25T13:09:06.981Z,23.45
2022-07-25T13:11:34.240Z,23.50
2022-07-25T13:14:01.236Z,23.52
2022-07-25T13:16:28.189Z,23.57
2022-07-25T13:18:55.416Z,23.61
2022-07-25T13:21:22.699Z,23.66
2022-07-25T13:23:49.627Z,23.73
2022-07-25T13:26:16.512Z,23.79
2022-07-25T13:28:43.488Z,23.81
2022-07-25T13:31:10.460Z,23.79
2022-07-25T13:33:37.328Z,23.74
2022-07-25T13:36:04.505Z,23.72
2022-07-25T13:38:31.415Z,23.70
2022-07-25T13:40:59.063Z,23.63
2022-07-25T13:43:26.094Z,23.62
2022-07-25T13:45:53.067Z,23.54
2022-07-25T13:48:29.629Z,23.48
2022-07-25T13:51:00.981Z,23.46
2022-07-25T13:53:30.258Z,23.43
2022-07-25T13:55:58.578Z,23.38
2022-07-25T13:58:25.897Z,23.39
2022-07-25T14:00:53.202Z,23.41
2022-07-25T14:03:20.362Z,23.44
2022-07-25T14:05:47.554Z,23.42
2022-07-25T14:08:14.590Z,23.43
2022-07-25T14:10:41.669Z,23.43
2022-07-25T14:13:08.580Z,23.43
2022-07-25T14:15:35.496Z,23.48
2022-07-25T14:18:02.864Z,23.59
2022-07-25T14:20:29.706Z,23.68
2022-07-25T14:22:56.654Z,23.76
2022-07-25T14:25:23.517Z,23.87
2022-07-25T14:27:50.435Z,23.97
2022-07-25T14:30:17.672Z,24.02
2022-07-25T14:32:45.296Z,24.09
2022-07-25T14:35:13.819Z,24.15
2022-07-25T14:37:41.972Z,24.25
2022-07-25T14:40:11.226Z,24.32
2022-07-25T14:42:38.773Z,24.38
2022-07-25T14:45:06.290Z,24.48
2022-07-25T14:47:33.206Z,24.53
2022-07-25T14:50:00.088Z,24.56
2022-07-25T14:52:27.830Z,24.58
2022-07-25T14:54:54.944Z,24.61
2022-07-25T14:57:21.821Z,24.60
2022-07-25T14:59:48.816Z,24.56
2022-07-25T15:02:16.390Z,24.49
2022-07-25T15:04:43.384Z,24.46
2022-07-25T15:07:10.469Z,24.39
2022-07-25T15:09:38.079Z,24.32
2022-07-25T15:12:05.109Z,24.29
2022-07-25T15:14:32.089Z,24.22
2022-07-25T15:16:59.087Z,24.15
2022-07-25T15:19:26.459Z,24.09
2022-07-25T15:21:53.575Z,24.00
2022-07-25T15:24:21.290Z,23.95
2022-07-25T15:26:49.608Z,23.85
2022-07-25T15:29:20.786Z,23.77
2022-07-25T15:31:48.847Z,23.68
2022-07-25T15:34:16.396Z,23.67
2022-07-25T15:36:43.325Z,23.61
2022-07-25T15:39:10.510Z,23.54
2022-07-25T15:41:37.736Z,23.51
2022-07-25T15:44:05.116Z,23.41
2022-07-25T15:46:33.065Z,23.37
2022-07-25T15:49:00.058Z,23.34
2022-07-25T15:51:27.150Z,23.32
2022-07-25T15:53:54.015Z,23.30
2022-07-25T15:56:20.893Z,23.35
2022-07-25T15:58:49.497Z,23.36
2022-07-25T16:01:16.908Z,23.40
2022-07-25T16:03:44.449Z,23.43
2022-07-25T16:06:16.895Z,23.45
2022-07-25T16:08:46.504Z,23.44
2022-07-25T16:11:13.762Z,23.43
2022-07-25T16:13:42.090Z,23.41
2022-07-25T16:16:11.494Z,23.37
2022-07-25T16:18:39.702Z,23.30
2022-07-25T16:21:09.988Z,23.23
2022-07-25T16:23:42.547Z,23.18
2022-07-25T16:26:12.707Z,23.11
2022-07-25T16:28:40.713Z,23.08
2022-07-25T16:31:07.720Z,23.08
2022-07-25T16:33:34.706Z,23.05
2022-07-25T16:36:01.653Z,23.03
2022-07-25T16:38:29.120Z,22.98
2022-07-25T16:40:56.566Z,22.99
2022-07-25T16:43:23.756Z,22.99
2022-07-25T16:45:51.321Z,22.90
2022-07-25T16:48:20.262Z,22.89
2022-07-25T16:50:48.190Z,22.84
2022-07-25T16:53:15.549Z,22.84
2022-07-25T16:55:43.143Z,22.86
2022-07-25T16:58:10.166Z,22.84
2022-07-25T17:00:38.367Z,22.84
2022-07-25T17:03:05.640Z,22.80
2022-07-25T17:05:32.639Z,22.78
2022-07-25T17:07:59.973Z,22.78
2022-07-25T17:10:27.992Z,22.75
2022-07-25T17:12:54.925Z,22.78
2022-07-25T17:15:22.036Z,22.79
2022-07-25T17:17:48.982Z,22.80
2022-07-25T17:20:16.159Z,22.79
2022-07-25T17:22:43.162Z,22.79
2022-07-25T17:25:10.377Z,22.78
2022-07-25T17:27:37.493Z,22.79
2022-07-25T17:30:05.447Z,22.77
2022-07-25T17:32:32.371Z,22.77
2022-07-25T17:34:59.884Z,22.77
2022-07-25T17:37:27.893Z,22.76
2022-07-25T17:39:54.969Z,22.77
2022-07-25T17:42:24.897Z,22.79
2022-07-25T17:44:52.891Z,22.74
2022-07-25T17:47:20.068Z,22.76
2022-07-25T17:49:47.734Z,22.76
2022-07-25T17:52:16.194Z,22.70
2022-07-25T17:54:43.054Z,22.74
2022-07-25T17:57:10.278Z,22.71
2022-07-25T17:59:37.211Z,22.74
2022-07-25T18:02:04.219Z,22.70
2022-07-25T18:04:31.664Z,22.71
2022-07-25T18:06:58.869Z,22.73
2022-07-25T18:09:25.844Z,22.70
2022-07-25T18:11:52.771Z,22.67
2022-07-25T18:14:19.636Z,22.69
2022-07-25T18:16:46.656Z,22.69
2022-07-25T18:19:13.778Z,22.70
2022-07-25T18:21:40.775Z,22.69
2022-07-25T18:24:08.244Z,22.64
2022-07-25T18:26:35.437Z,22.63
2022-07-25T18:29:02.303Z,22.64
2022-07-25T18:31:29.225Z,22.62
2022-07-25T18:33:56.165Z,22.62
2022-07-25T18:36:23.058Z,22.61
2022-07-25T18:38:49.990Z,22.56
2022-07-25T18:41:29.280Z,22.53
2022-07-25T18:43:56.941Z,22.50
2022-07-25T18:46:24.031Z,22.49
2022-07-25T18:48:53.783Z,22.50
2022-07-25T18:51:21.017Z,22.51
2022-07-25T18:53:48.781Z,22.48
2022-07-25T18:56:17.393Z,22.45
2022-07-25T18:58:44.943Z,22.41
2022-07-25T19:01:12.191Z,22.40
2022-07-25T19:03:40.755Z,22.37
2022-07-25T19:06:09.012Z,22.35
2022-07-25T19:08:36.044Z,22.32
2022-07-25T19:11:02.981Z,22.32
2022-07-25T19:16:17.741Z,22.25
2022-07-25T19:18:44.874Z,22.23
2022-07-25T19:21:12.086Z,22.27
2022-07-25T19:23:38.957Z,22.21
2022-07-25T19:26:06.417Z,22.17
2022-07-25T19:28:33.912Z,22.20
2022-07-25T19:31:01.170Z,22.17
2022-07-25T19:33:35.707Z,22.15
2022-07-25T19:36:04.776Z,22.12
2022-07-25T19:38:33.021Z,22.15
2022-07-25T19:41:01.033Z,22.13
2022-07-25T19:43:29.362Z,22.09
2022-07-25T19:45:57.082Z,22.04
2022-07-25T19:48:24.595Z,22.01
2022-07-25T19:50:52.870Z,22.02
2022-07-25T19:53:23.037Z,22.02
2022-07-25T19:55:52.439Z,22.04
2022-07-25T19:58:19.613Z,22.02
2022-07-25T20:00:46.894Z,22.00
2022-07-25T20:03:15.646Z,22.03
2022-07-25T20:05:43.153Z,22.04
2022-07-25T20:08:10.201Z,21.98
2022-07-25T20:10:37.279Z,21.99
2022-07-25T20:13:04.557Z,21.97
2022-07-25T20:15:31.495Z,21.97
2022-07-25T20:17:59.014Z,21.93
2022-07-25T20:20:26.606Z,21.94
2022-07-25T20:22:53.611Z,21.88
2022-07-25T20:25:20.497Z,21.90
2022-07-25T20:27:49.894Z,21.90
2022-07-25T20:30:17.987Z,21.89
2022-07-25T20:32:45.215Z,21.92
2022-07-25T20:35:12.297Z,21.90
2022-07-25T20:37:39.785Z,21.87
2022-07-25T20:40:07.629Z,21.84
2022-07-25T20:42:37.612Z,21.88
2022-07-25T20:45:08.180Z,21.78
2022-07-25T20:47:35.071Z,21.84
2022-07-25T20:50:02.236Z,21.84
2022-07-25T20:52:30.485Z,21.86
2022-07-25T20:54:57.432Z,21.82
2022-07-25T20:57:24.508Z,21.75
2022-07-25T20:59:51.446Z,21.78
2022-07-25T21:02:18.655Z,21.79
2022-07-25T21:04:48.617Z,21.79
2022-07-25T21:07:16.556Z,21.83
2022-07-25T21:09:43.966Z,21.75
2022-07-25T21:12:10.954Z,21.76
2022-07-25T21:14:37.832Z,21.74
2022-07-25T21:17:04.873Z,21.73
2022-07-25T21:19:34.076Z,21.73
2022-07-25T21:22:02.997Z,21.73
2022-07-25T21:24:30.891Z,21.73
2022-07-25T21:26:57.987Z,21.70
2022-07-25T21:29:26.008Z,21.68
2022-07-25T21:31:53.104Z,21.66
2022-07-25T21:34:21.373Z,21.65
2022-07-25T21:36:48.423Z,21.63
2022-07-25T21:39:16.333Z,21.60
2022-07-25T21:41:44.251Z,21.63
2022-07-25T21:44:13.704Z,21.61
2022-07-25T21:46:40.566Z,21.62
2022-07-25T21:49:41.793Z,21.61
2022-07-25T21:52:13.565Z,21.58
2022-07-25T21:54:42.177Z,21.59
2022-07-25T21:57:12.994Z,21.60
2022-07-25T21:59:42.523Z,21.62
2022-07-25T22:02:09.703Z,21.61
2022-07-25T22:04:36.982Z,21.56
2022-07-25T22:07:04.509Z,21.57
2022-07-25T22:09:31.657Z,21.57
2022-07-25T22:11:59.198Z,21.57
2022-07-25T22:14:26.156Z,21.54
2022-07-25T22:16:53.245Z,21.55
2022-07-25T22:19:22.498Z,21.56
2022-07-25T22:21:50.215Z,21.53
2022-07-25T22:24:17.259Z,21.56
2022-07-25T22:26:44.184Z,21.53
2022-07-25T22:29:11.741Z,21.56
2022-07-25T22:31:39.287Z,21.53
2022-07-25T22:34:06.455Z,21.49
2022-07-25T22:36:33.377Z,21.52
2022-07-25T22:39:00.249Z,21.49
2022-07-25T22:41:27.158Z,21.49
2022-07-25T22:43:58.032Z,21.54
2022-07-25T22:46:29.950Z,21.50
2022-07-25T22:48:58.213Z,21.49
2022-07-25T22:51:25.694Z,21.51
2022-07-25T22:53:52.830Z,21.50
2022-07-25T22:56:19.748Z,21.51
2022-07-25T22:58:48.759Z,21.50
2022-07-25T23:01:19.465Z,21.51
2022-07-25T23:03:47.561Z,21.47
2022-07-25T23:06:14.529Z,21.47
2022-07-25T23:08:41.459Z,21.47
2022-07-25T23:11:08.661Z,21.47
2022-07-25T23:13:36.578Z,21.47
2022-07-25T23:16:04.392Z,21.44
2022-07-25T23:18:31.767Z,21.48
2022-07-25T23:20:58.722Z,21.46
2022-07-25T23:23:25.797Z,21.45
2022-07-25T23:25:52.901Z,21.46
2022-07-25T23:28:19.928Z,21.45
2022-07-25T23:30:46.934Z,21.40
2022-07-25T23:33:13.882Z,21.42
2022-07-25T23:35:42.426Z,21.45
2022-07-25T23:38:10.959Z,21.40
2022-07-25T23:40:37.893Z,21.42
2022-07-25T23:43:04.758Z,21.43
2022-07-25T23:45:31.651Z,21.44
2022-07-25T23:47:58.837Z,21.41
2022-07-25T23:50:26.316Z,21.41
2022-07-25T23:52:53.652Z,21.37
2022-07-25T23:55:20.739Z,21.36
2022-07-25T23:57:47.649Z,21.37
